Time;durP1;ratioP1;P1;durP2;ratioP2;P2;SDS_P1;SDS_P2;PMS_P1;PMS_P2;Temp;Humidity;BMP_temperature;BMP_pressure;BME280_temperature;BME280_humidity;BME280_pressure;Samples;Min_cycle;Max_cycle;Signal;HPM_P1;HPM_P2
2022/03/16 00:00:18;;;;;;;8.67;5.97;;;15.60;46.90;;;;;;5091907;28;20443;-87
2022/03/16 00:02:47;;;;;;;9.80;5.97;;;15.60;47.00;;;;;;5091732;28;20440;-87
2022/03/16 00:05:15;;;;;;;8.20;5.90;;;15.60;46.90;;;;;;5092056;28;20567;-85
2022/03/16 00:07:43;;;;;;;7.80;6.40;;;15.60;46.90;;;;;;5094411;28;20448;-85
2022/03/16 00:10:12;;;;;;;9.63;6.60;;;15.60;46.90;;;;;;5093078;28;20875;-85
2022/03/16 00:12:41;;;;;;;8.97;6.87;;;15.60;46.90;;;;;;5089804;28;20489;-85
2022/03/16 00:15:11;;;;;;;8.20;5.80;;;15.60;47.00;;;;;;5093338;28;20536;-85
2022/03/16 00:17:39;;;;;;;7.27;5.93;;;15.60;47.00;;;;;;5090354;28;20440;-85
2022/03/16 00:20:07;;;;;;;7.70;6.40;;;15.60;46.90;;;;;;5093067;28;20471;-85
2022/03/16 00:22:35;;;;;;;9.83;5.93;;;15.50;47.00;;;;;;5092179;28;20453;-85
2022/03/16 00:25:05;;;;;;;7.27;5.97;;;15.60;47.00;;;;;;5093059;28;20502;-85
2022/03/16 00:27:33;;;;;;;9.37;6.63;;;15.50;46.90;;;;;;5093067;28;20425;-84
2022/03/16 00:30:01;;;;;;;7.10;5.53;;;15.50;47.00;;;;;;5093646;28;20472;-85
2022/03/16 00:32:31;;;;;;;7.03;5.90;;;15.50;47.10;;;;;;5095140;28;20433;-85
2022/03/16 00:34:59;;;;;;;7.80;6.20;;;15.50;47.10;;;;;;5088656;28;20459;-84
2022/03/16 00:37:27;;;;;;;7.00;5.67;;;15.50;47.10;;;;;;5093526;28;20443;-85
2022/03/16 00:39:55;;;;;;;7.30;6.10;;;15.40;47.10;;;;;;5091637;28;20521;-85
2022/03/16 00:42:23;;;;;;;7.27;5.97;;;15.40;47.10;;;;;;5092177;28;20527;-85
2022/03/16 00:44:51;;;;;;;6.97;5.70;;;15.40;47.00;;;;;;5092791;28;20472;-85
2022/03/16 00:47:18;;;;;;;7.70;6.30;;;15.40;47.20;;;;;;5092903;28;20520;-85
2022/03/16 00:49:47;;;;;;;9.20;5.70;;;15.30;47.20;;;;;;5092786;28;20429;-85
2022/03/16 00:52:15;;;;;;;8.03;6.40;;;15.40;47.30;;;;;;5092520;28;20489;-85
2022/03/16 00:54:43;;;;;;;6.67;5.67;;;15.40;47.30;;;;;;5092586;28;20529;-85
2022/03/16 00:57:11;;;;;;;10.10;5.87;;;15.40;47.20;;;;;;5093238;28;20464;-85
2022/03/16 00:59:40;;;;;;;7.30;5.93;;;15.30;47.20;;;;;;5090140;28;20472;-84
2022/03/16 01:02:08;;;;;;;9.93;6.20;;;15.30;47.30;;;;;;5093200;28;20452;-85
2022/03/16 01:04:36;;;;;;;7.23;5.60;;;15.30;47.20;;;;;;5092716;28;20496;-85
2022/03/16 01:07:06;;;;;;;8.70;5.87;;;15.30;47.20;;;;;;5093010;28;20547;-85
2022/03/16 01:09:34;;;;;;;9.63;6.13;;;15.20;47.80;;;;;;5093112;28;20492;-84
2022/03/16 01:12:03;;;;;;;8.00;6.33;;;15.30;47.40;;;;;;5094958;28;20472;-85
2022/03/16 01:14:30;;;;;;;7.50;5.70;;;15.30;47.30;;;;;;5094138;28;20477;-85
2022/03/16 01:16:59;;;;;;;7.20;5.50;;;15.30;47.30;;;;;;5090950;28;20514;-84
2022/03/16 01:19:28;;;;;;;8.03;6.03;;;15.30;47.40;;;;;;5094935;28;20440;-84
2022/03/16 01:21:56;;;;;;;7.40;5.93;;;15.20;47.20;;;;;;5095868;28;20459;-85
2022/03/16 01:24:25;;;;;;;8.63;5.17;;;15.20;47.30;;;;;;5103725;28;20448;-84
2022/03/16 01:26:53;;;;;;;8.70;6.27;;;15.20;47.40;;;;;;5107146;28;20428;-84
2022/03/16 01:29:22;;;;;;;8.47;6.13;;;15.20;48.00;;;;;;5113367;28;20428;-85
2022/03/16 01:31:49;;;;;;;6.90;5.27;;;15.20;47.40;;;;;;5113353;28;20468;-84
2022/03/16 01:34:17;;;;;;;6.33;5.53;;;15.20;47.40;;;;;;5115964;28;20464;-84
2022/03/16 01:36:45;;;;;;;9.17;5.90;;;15.20;47.40;;;;;;5114878;28;20453;-84
2022/03/16 01:39:14;;;;;;;6.70;5.73;;;15.20;47.40;;;;;;5113932;28;20472;-84
2022/03/16 01:41:43;;;;;;;6.70;5.27;;;15.10;47.30;;;;;;5102818;28;20924;-85
2022/03/16 01:44:11;;;;;;;6.60;5.20;;;15.10;47.30;;;;;;5101651;28;20480;-86
2022/03/16 01:46:39;;;;;;;7.30;5.27;;;15.10;47.30;;;;;;5102903;28;20464;-85
2022/03/16 01:49:07;;;;;;;9.83;5.37;;;15.10;47.40;;;;;;5091700;28;20453;-83
2022/03/16 01:51:35;;;;;;;6.37;5.17;;;15.10;47.40;;;;;;5098221;28;20544;-86
2022/03/16 01:54:03;;;;;;;5.70;5.10;;;15.10;47.50;;;;;;5099479;28;20530;-83
2022/03/16 01:56:31;;;;;;;6.83;5.37;;;15.10;47.50;;;;;;5101616;28;20457;-84
2022/03/16 01:59:00;;;;;;;11.20;5.60;;;15.10;47.50;;;;;;5104595;28;20472;-85
2022/03/16 02:01:28;;;;;;;6.20;5.40;;;15.10;47.50;;;;;;5105340;28;20457;-85
2022/03/16 02:03:56;;;;;;;6.80;5.10;;;15.00;47.40;;;;;;5098213;28;20471;-85
2022/03/16 02:06:24;;;;;;;7.93;5.50;;;15.00;47.50;;;;;;5091599;28;20553;-85
2022/03/16 02:08:51;;;;;;;7.90;5.10;;;15.00;47.40;;;;;;5095688;28;20537;-84
2022/03/16 02:11:19;;;;;;;6.83;5.40;;;15.00;47.50;;;;;;5095805;28;21082;-86
2022/03/16 02:13:47;;;;;;;7.00;5.10;;;15.00;47.50;;;;;;5101458;28;20488;-84
2022/03/16 02:16:17;;;;;;;6.27;5.33;;;15.00;47.50;;;;;;5107771;28;20441;-84
2022/03/16 02:18:45;;;;;;;7.53;5.47;;;15.00;47.60;;;;;;5108053;28;20444;-84
2022/03/16 02:21:13;;;;;;;5.80;5.00;;;15.00;47.60;;;;;;5104971;28;20474;-84
2022/03/16 02:23:42;;;;;;;5.20;4.70;;;14.90;47.50;;;;;;5099212;28;20464;-85
2022/03/16 02:26:12;;;;;;;5.33;4.83;;;14.90;47.60;;;;;;5108718;28;20424;-84
2022/03/16 02:28:40;;;;;;;6.30;5.03;;;14.90;47.60;;;;;;5108735;28;20493;-84
2022/03/16 02:31:07;;;;;;;5.43;4.90;;;14.90;47.50;;;;;;5105190;28;20472;-83
2022/03/16 02:33:35;;;;;;;6.53;5.03;;;14.90;47.70;;;;;;5104779;28;20444;-84
2022/03/16 02:36:03;;;;;;;5.93;5.10;;;14.90;47.60;;;;;;5104665;28;20432;-84
2022/03/16 02:38:31;;;;;;;5.83;5.23;;;14.90;47.60;;;;;;5103097;28;20480;-84
2022/03/16 02:41:00;;;;;;;5.80;5.10;;;14.90;47.60;;;;;;5104333;28;20433;-84
2022/03/16 02:43:28;;;;;;;6.90;5.17;;;14.90;47.50;;;;;;5104444;28;20488;-84
2022/03/16 02:45:56;;;;;;;5.70;4.83;;;14.80;47.60;;;;;;5097767;28;20512;-84
2022/03/16 02:48:24;;;;;;;7.27;5.30;;;14.80;47.60;;;;;;5101274;28;20439;-84
2022/03/16 02:50:52;;;;;;;5.90;5.10;;;14.80;47.60;;;;;;5103124;28;20451;-84
2022/03/16 02:53:20;;;;;;;5.13;4.63;;;14.80;47.60;;;;;;5100185;28;20457;-83
2022/03/16 02:55:52;;;;;;;6.13;4.60;;;14.80;47.60;;;;;;5103708;28;20476;-84
2022/03/16 02:58:22;;;;;;;9.10;5.37;;;14.80;47.60;;;;;;5105116;28;20437;-83
2022/03/16 03:00:49;;;;;;;7.10;4.87;;;14.80;47.70;;;;;;5099599;28;20440;-84
2022/03/16 03:03:18;;;;;;;6.47;5.10;;;14.80;47.60;;;;;;5109646;28;20518;-84
2022/03/16 03:05:46;;;;;;;5.00;4.50;;;14.80;47.70;;;;;;5112903;28;20424;-84
2022/03/16 03:08:14;;;;;;;7.07;5.13;;;14.80;47.70;;;;;;5113795;28;20479;-84
2022/03/16 03:10:42;;;;;;;6.40;5.20;;;14.80;47.70;;;;;;5114151;28;20433;-84
2022/03/16 03:13:11;;;;;;;5.60;4.80;;;14.80;47.60;;;;;;5110390;28;20476;-83
2022/03/16 03:15:41;;;;;;;6.97;4.87;;;14.80;47.60;;;;;;5115706;28;20425;-85
2022/03/16 03:18:09;;;;;;;5.30;4.77;;;14.80;47.60;;;;;;5116018;28;20447;-85
2022/03/16 03:20:38;;;;;;;8.50;4.80;;;14.70;47.70;;;;;;5114091;28;20444;-84
2022/03/16 03:23:06;;;;;;;5.30;4.80;;;14.70;47.70;;;;;;5114815;28;20468;-84
2022/03/16 03:25:34;;;;;;;6.73;5.10;;;14.70;47.70;;;;;;5115046;28;20432;-85
2022/03/16 03:28:02;;;;;;;5.17;4.43;;;14.70;47.70;;;;;;5114667;28;20441;-85
2022/03/16 03:30:30;;;;;;;6.67;4.63;;;14.70;47.70;;;;;;5107323;28;20468;-84
2022/03/16 03:32:59;;;;;;;5.60;5.00;;;14.70;47.70;;;;;;5114430;28;20468;-84
2022/03/16 03:35:27;;;;;;;5.53;4.50;;;14.70;47.70;;;;;;5112883;28;20444;-84
2022/03/16 03:37:55;;;;;;;5.23;4.70;;;14.70;47.70;;;;;;5113707;28;20430;-84
2022/03/16 03:40:22;;;;;;;7.47;5.40;;;14.70;47.70;;;;;;5112141;28;20459;-84
2022/03/16 03:42:51;;;;;;;5.20;4.70;;;14.70;47.70;;;;;;5113070;28;20421;-85
2022/03/16 03:45:19;;;;;;;4.90;4.50;;;14.70;47.80;;;;;;5112764;28;20432;-84
2022/03/16 03:47:47;;;;;;;6.20;4.93;;;14.70;47.80;;;;;;5106103;28;20452;-84
2022/03/16 03:50:17;;;;;;;5.23;4.73;;;14.70;47.80;;;;;;5113124;28;20421;-83
2022/03/16 03:52:45;;;;;;;6.77;4.70;;;14.60;47.70;;;;;;5111919;28;20473;-84
2022/03/16 03:55:12;;;;;;;5.10;4.60;;;14.60;47.80;;;;;;5112850;28;20425;-85
2022/03/16 03:57:40;;;;;;;6.30;4.47;;;14.60;47.80;;;;;;5110732;28;20473;-83
2022/03/16 04:00:09;;;;;;;6.13;4.83;;;14.60;47.80;;;;;;5111987;28;20428;-85
2022/03/16 04:02:37;;;;;;;5.33;4.83;;;14.60;47.80;;;;;;5111143;28;20445;-84
2022/03/16 04:05:06;;;;;;;8.60;4.47;;;14.60;47.80;;;;;;5111190;28;20464;-85
2022/03/16 04:07:35;;;;;;;5.47;4.87;;;14.60;47.80;;;;;;5113739;28;20447;-84
2022/03/16 04:10:03;;;;;;;4.83;4.40;;;14.60;47.80;;;;;;5113000;28;20783;-86
2022/03/16 04:12:31;;;;;;;4.87;4.40;;;14.60;47.80;;;;;;5111578;28;20460;-85
2022/03/16 04:14:59;;;;;;;6.07;4.50;;;14.60;47.80;;;;;;5111593;28;20468;-85
2022/03/16 04:17:27;;;;;;;6.20;4.40;;;14.60;47.90;;;;;;5110900;28;20441;-84
2022/03/16 04:19:55;;;;;;;5.67;4.83;;;14.50;47.70;;;;;;5104533;28;20475;-84
2022/03/16 04:22:22;;;;;;;6.50;4.83;;;14.50;47.80;;;;;;5099597;28;20467;-85
2022/03/16 04:24:52;;;;;;;4.07;3.77;;;14.50;47.80;;;;;;5098495;28;20514;-84
2022/03/16 04:27:20;;;;;;;4.90;4.40;;;14.50;47.80;;;;;;5100267;28;20475;-85
2022/03/16 04:29:48;;;;;;;5.13;4.60;;;14.50;47.80;;;;;;5108765;28;20441;-84
2022/03/16 04:32:16;;;;;;;4.40;4.00;;;14.50;47.80;;;;;;5098417;28;20541;-85
2022/03/16 04:34:44;;;;;;;5.20;4.70;;;14.50;47.90;;;;;;5097561;28;20506;-85
2022/03/16 04:37:11;;;;;;;4.27;3.87;;;14.50;47.90;;;;;;5095065;28;20476;-85
2022/03/16 04:39:39;;;;;;;4.73;4.33;;;14.50;47.90;;;;;;5099170;28;20999;-85
2022/03/16 04:42:14;;;;;;;5.10;4.60;;;14.50;47.90;;;;;;5098791;28;20478;-85
2022/03/16 04:44:42;;;;;;;5.07;4.07;;;14.50;47.90;;;;;;5098654;28;20456;-86
2022/03/16 04:47:24;;;;;;;4.40;4.00;;;14.50;47.90;;;;;;5060954;28;20442;-85
2022/03/16 04:49:52;;;;;;;4.70;4.30;;;14.50;47.80;;;;;;5084426;28;20446;-86
2022/03/16 04:52:19;;;;;;;4.73;4.23;;;14.50;47.80;;;;;;5084611;28;20469;-85
2022/03/16 04:54:47;;;;;;;6.47;4.77;;;14.50;47.90;;;;;;5085496;28;20573;-84
2022/03/16 04:57:16;;;;;;;6.73;4.57;;;14.50;47.90;;;;;;5085321;28;20449;-85
2022/03/16 04:59:44;;;;;;;4.10;3.70;;;14.40;47.90;;;;;;5084900;28;20438;-85
2022/03/16 05:02:12;;;;;;;4.83;4.43;;;14.50;47.80;;;;;;5077745;28;20504;-85
2022/03/16 05:04:40;;;;;;;4.30;3.90;;;14.50;47.90;;;;;;5069207;28;20473;-85
2022/03/16 05:07:08;;;;;;;4.47;4.00;;;14.40;47.90;;;;;;5076750;28;20449;-85
2022/03/16 05:09:36;;;;;;;4.13;3.73;;;14.40;47.90;;;;;;5076037;28;20434;-85
2022/03/16 05:12:04;;;;;;;4.57;4.17;;;14.40;47.90;;;;;;5074640;28;20437;-85
2022/03/16 05:14:33;;;;;;;5.17;4.43;;;14.40;48.00;;;;;;5074072;28;20501;-85
2022/03/16 05:17:01;;;;;;;5.57;4.70;;;14.40;47.90;;;;;;5075168;28;20438;-84
2022/03/16 05:19:30;;;;;;;4.13;3.80;;;14.40;48.00;;;;;;5097551;28;20476;-85
2022/03/16 05:21:58;;;;;;;6.13;4.67;;;14.40;47.90;;;;;;5100659;28;20432;-85
2022/03/16 05:24:26;;;;;;;4.40;4.10;;;14.40;47.90;;;;;;5099775;28;21044;-84
2022/03/16 05:26:54;;;;;;;4.40;3.80;;;14.40;48.00;;;;;;5098149;28;20498;-86
2022/03/16 05:29:22;;;;;;;6.30;4.00;;;14.40;47.90;;;;;;5101294;28;20445;-85
2022/03/16 05:31:51;;;;;;;4.23;3.83;;;14.40;48.00;;;;;;5097377;28;20468;-85
2022/03/16 05:34:19;;;;;;;4.20;3.80;;;14.40;48.00;;;;;;5098163;28;20473;-86
2022/03/16 05:36:47;;;;;;;4.00;3.70;;;14.40;48.00;;;;;;5087511;28;20479;-85
2022/03/16 05:39:15;;;;;;;4.03;3.70;;;14.40;48.00;;;;;;5097557;28;20436;-85
2022/03/16 05:41:43;;;;;;;4.13;3.70;;;14.40;47.90;;;;;;5101043;28;20469;-85
2022/03/16 05:44:11;;;;;;;3.80;3.50;;;14.40;47.90;;;;;;5101359;28;20444;-85
2022/03/16 05:46:39;;;;;;;4.40;4.00;;;14.40;47.90;;;;;;5105560;28;20425;-85
2022/03/16 05:49:08;;;;;;;4.13;3.73;;;14.40;47.90;;;;;;5100941;28;20444;-85
2022/03/16 05:51:36;;;;;;;3.97;3.57;;;14.40;47.90;;;;;;5095012;28;20476;-85
2022/03/16 05:54:04;;;;;;;3.90;3.50;;;14.50;47.90;;;;;;5096454;28;20712;-85
2022/03/16 05:56:33;;;;;;;5.90;4.47;;;14.40;48.00;;;;;;5099423;28;20464;-85
2022/03/16 05:59:01;;;;;;;4.27;3.87;;;14.40;47.90;;;;;;5100676;28;20526;-85
2022/03/16 06:01:29;;;;;;;5.03;4.40;;;14.50;47.90;;;;;;5099777;28;20469;-85
2022/03/16 06:03:57;;;;;;;5.60;4.50;;;14.50;47.80;;;;;;5103062;28;20453;-85
2022/03/16 06:06:29;;;;;;;4.50;4.10;;;14.50;47.90;;;;;;5104502;28;20451;-85
2022/03/16 06:08:57;;;;;;;3.83;3.43;;;14.50;47.90;;;;;;5107879;28;20461;-84
2022/03/16 06:11:25;;;;;;;4.60;4.20;;;14.50;47.80;;;;;;5105547;28;20916;-85
2022/03/16 06:13:53;;;;;;;3.97;3.57;;;14.60;47.80;;;;;;5101023;28;20480;-85
2022/03/16 06:16:20;;;;;;;4.73;4.20;;;14.50;47.70;;;;;;5105650;28;20454;-85
2022/03/16 06:18:48;;;;;;;4.53;4.03;;;14.50;47.70;;;;;;5106609;28;20495;-85
2022/03/16 06:21:16;;;;;;;4.07;3.77;;;14.50;47.80;;;;;;5103278;28;20470;-85
2022/03/16 06:23:46;;;;;;;4.40;4.00;;;14.50;47.80;;;;;;5098834;28;20495;-85
2022/03/16 06:26:13;;;;;;;4.47;4.07;;;14.60;47.80;;;;;;5097371;28;20454;-85
2022/03/16 06:28:41;;;;;;;4.60;3.90;;;14.60;47.70;;;;;;5085639;28;20472;-85
2022/03/16 06:31:09;;;;;;;3.70;3.37;;;14.60;47.80;;;;;;5099349;28;20440;-85
2022/03/16 06:33:37;;;;;;;4.27;3.90;;;14.60;47.60;;;;;;5095930;28;20479;-85
2022/03/16 06:36:05;;;;;;;5.20;4.70;;;14.60;47.70;;;;;;5095405;28;20515;-85
2022/03/16 06:38:34;;;;;;;4.27;3.80;;;14.70;47.70;;;;;;5095743;28;20475;-85
2022/03/16 06:41:03;;;;;;;4.23;3.83;;;14.70;47.60;;;;;;5095558;28;20464;-86
2022/03/16 06:43:31;;;;;;;4.40;3.70;;;14.70;47.70;;;;;;5094255;28;20472;-85
2022/03/16 06:45:58;;;;;;;4.30;3.90;;;14.70;47.70;;;;;;5095531;28;20440;-85
2022/03/16 06:48:27;;;;;;;4.30;3.77;;;14.70;47.60;;;;;;5096295;28;20437;-85
2022/03/16 06:50:55;;;;;;;4.87;4.20;;;14.70;47.60;;;;;;5096300;28;20566;-85
2022/03/16 06:53:23;;;;;;;4.10;3.80;;;14.80;47.60;;;;;;5096112;28;20988;-84
2022/03/16 06:55:51;;;;;;;4.50;3.90;;;14.80;47.60;;;;;;5095809;28;20486;-85
2022/03/16 06:58:20;;;;;;;4.47;4.07;;;14.80;47.60;;;;;;5095725;28;20495;-85
2022/03/16 07:00:48;;;;;;;4.87;4.40;;;14.80;47.60;;;;;;5094329;28;20539;-85
2022/03/16 07:03:16;;;;;;;4.50;3.77;;;14.80;47.60;;;;;;5084396;28;20472;-85
2022/03/16 07:05:45;;;;;;;4.60;4.20;;;14.80;47.60;;;;;;5095445;28;20437;-85
2022/03/16 07:08:14;;;;;;;4.30;3.70;;;14.90;47.60;;;;;;5095502;28;20456;-84
2022/03/16 07:10:42;;;;;;;4.97;3.70;;;14.90;47.50;;;;;;5097246;28;20448;-85
2022/03/16 07:13:11;;;;;;;4.20;3.80;;;14.90;47.50;;;;;;5101378;28;20492;-86
2022/03/16 07:15:40;;;;;;;4.17;3.77;;;15.00;47.50;;;;;;5094380;28;20440;-85
2022/03/16 07:18:09;;;;;;;3.70;3.50;;;15.00;47.50;;;;;;5094549;28;20437;-84
2022/03/16 07:20:37;;;;;;;4.53;4.13;;;15.00;47.40;;;;;;5096823;28;20449;-85
2022/03/16 07:23:06;;;;;;;4.73;4.10;;;15.10;47.50;;;;;;5097643;28;20559;-85
2022/03/16 07:25:36;;;;;;;3.70;3.40;;;15.10;47.40;;;;;;5097329;28;20425;-85
2022/03/16 07:28:04;;;;;;;4.30;3.90;;;15.10;47.20;;;;;;5097376;28;20425;-85
2022/03/16 07:30:33;;;;;;;3.70;3.40;;;15.10;47.30;;;;;;5097596;28;20467;-85
2022/03/16 07:33:02;;;;;;;4.70;4.00;;;15.20;47.30;;;;;;5097731;28;20498;-84
2022/03/16 07:35:31;;;;;;;4.10;3.70;;;15.30;47.40;;;;;;5098293;28;20526;-84
2022/03/16 07:38:01;;;;;;;4.27;3.97;;;15.30;47.20;;;;;;5095967;28;20449;-85
2022/03/16 07:40:30;;;;;;;4.60;4.20;;;15.30;47.10;;;;;;5097292;28;20428;-85
2022/03/16 07:42:58;;;;;;;4.20;3.90;;;15.40;47.10;;;;;;5097611;28;20460;-85
2022/03/16 07:45:26;;;;;;;4.60;4.20;;;15.40;47.10;;;;;;5097350;28;20471;-85
2022/03/16 07:47:55;;;;;;;5.40;4.20;;;15.40;47.50;;;;;;5097542;28;20468;-85
2022/03/16 07:50:25;;;;;;;3.73;3.53;;;15.50;47.10;;;;;;5096930;28;20425;-85
2022/03/16 07:52:53;;;;;;;3.80;3.50;;;15.50;46.90;;;;;;5095043;28;20449;-85
2022/03/16 07:55:21;;;;;;;4.33;3.93;;;15.50;46.90;;;;;;5093571;28;20496;-85
2022/03/16 07:57:49;;;;;;;4.53;4.00;;;15.60;46.90;;;;;;5097019;28;20433;-84
2022/03/16 08:00:18;;;;;;;4.57;4.20;;;15.60;46.90;;;;;;5097264;28;20444;-85
2022/03/16 08:02:46;;;;;;;4.07;3.70;;;15.70;46.80;;;;;;5097080;28;20506;-85
2022/03/16 08:05:15;;;;;;;3.80;3.50;;;15.70;46.70;;;;;;5096803;28;20524;-85
2022/03/16 08:07:44;;;;;;;3.90;3.50;;;15.80;46.60;;;;;;5096553;28;20490;-85
2022/03/16 08:10:12;;;;;;;3.87;3.57;;;15.80;46.60;;;;;;5093012;28;20453;-85
2022/03/16 08:12:40;;;;;;;3.57;3.37;;;15.80;46.60;;;;;;5087605;28;20504;-84
2022/03/16 08:15:08;;;;;;;3.77;3.50;;;15.90;46.40;;;;;;5096150;28;20501;-82
2022/03/16 08:17:36;;;;;;;3.90;3.57;;;15.90;46.40;;;;;;5096661;28;20483;-84
2022/03/16 08:20:05;;;;;;;3.80;3.50;;;16.00;46.40;;;;;;5096515;28;21043;-84
2022/03/16 08:22:33;;;;;;;4.00;3.70;;;16.10;46.30;;;;;;5096590;28;20428;-84
2022/03/16 08:25:04;;;;;;;3.50;3.30;;;16.10;46.30;;;;;;5096369;28;20496;-85
2022/03/16 08:27:32;;;;;;;4.10;3.70;;;16.10;46.30;;;;;;5095273;28;20502;-84
2022/03/16 08:30:00;;;;;;;4.33;3.93;;;16.20;46.20;;;;;;5092125;28;20429;-85
2022/03/16 08:32:28;;;;;;;3.53;3.30;;;16.20;46.20;;;;;;5097894;28;20441;-85
2022/03/16 08:34:56;;;;;;;4.67;4.27;;;16.30;46.10;;;;;;5097362;28;20476;-84
2022/03/16 08:37:24;;;;;;;4.30;3.90;;;16.30;46.10;;;;;;5096983;28;20510;-84
2022/03/16 08:39:52;;;;;;;4.17;3.87;;;16.40;46.10;;;;;;5097597;28;20444;-85
2022/03/16 08:42:22;;;;;;;4.10;3.70;;;16.50;45.90;;;;;;5097138;28;20483;-85
2022/03/16 08:44:53;;;;;;;4.30;3.90;;;16.60;46.00;;;;;;5095732;28;20464;-85
2022/03/16 08:47:21;;;;;;;4.00;3.70;;;16.70;45.90;;;;;;5101101;28;20456;-85
2022/03/16 08:49:50;;;;;;;3.80;3.50;;;16.70;45.70;;;;;;5102639;28;20425;-84
2022/03/16 08:52:18;;;;;;;3.93;3.63;;;16.90;45.40;;;;;;5092744;28;20464;-85
2022/03/16 08:54:45;;;;;;;4.00;3.70;;;16.90;45.30;;;;;;5092468;28;20572;-84
2022/03/16 08:57:14;;;;;;;4.10;3.80;;;17.20;45.10;;;;;;5092395;28;20486;-84
2022/03/16 08:59:43;;;;;;;3.70;3.40;;;17.30;45.00;;;;;;5091518;28;20437;-85
2022/03/16 09:02:11;;;;;;;4.13;3.70;;;17.30;44.90;;;;;;5091463;28;20533;-84
2022/03/16 09:04:39;;;;;;;4.60;4.20;;;17.40;45.00;;;;;;5092623;28;20453;-84
2022/03/16 09:07:07;;;;;;;3.80;3.50;;;17.50;44.80;;;;;;5092570;28;20468;-84
2022/03/16 09:09:39;;;;;;;5.60;3.50;;;17.50;44.80;;;;;;5092339;28;20571;-83
2022/03/16 09:12:08;;;;;;;4.07;3.67;;;17.50;44.90;;;;;;5092778;28;20460;-84
2022/03/16 09:14:35;;;;;;;4.37;3.83;;;17.50;45.70;;;;;;5092353;28;20469;-83
2022/03/16 09:17:06;;;;;;;4.43;4.03;;;17.60;45.20;;;;;;5092972;28;20441;-83
2022/03/16 09:19:34;;;;;;;4.20;3.90;;;17.60;45.60;;;;;;5090431;28;20485;-84
2022/03/16 09:22:02;;;;;;;3.90;3.60;;;17.60;46.10;;;;;;5093153;28;20428;-83
2022/03/16 09:24:30;;;;;;;4.67;4.27;;;17.50;46.80;;;;;;5092862;28;20445;-83
2022/03/16 09:26:59;;;;;;;3.83;3.57;;;17.50;47.30;;;;;;5093164;28;20421;-84
2022/03/16 09:29:28;;;;;;;4.03;3.63;;;17.70;47.90;;;;;;5093223;28;20444;-84
2022/03/16 09:32:01;;;;;;;5.00;3.83;;;17.80;48.80;;;;;;5092970;28;20498;-83
2022/03/16 09:34:30;;;;;;;3.73;3.43;;;18.00;48.10;;;;;;5092018;28;20457;-81
2022/03/16 09:36:59;;;;;;;3.93;3.70;;;18.30;48.10;;;;;;5092667;28;20553;-82
2022/03/16 09:39:27;;;;;;;4.60;4.20;;;18.50;47.80;;;;;;5094739;28;20468;-82
2022/03/16 09:41:55;;;;;;;4.17;3.87;;;18.70;47.80;;;;;;5098742;28;20437;-82
2022/03/16 09:44:23;;;;;;;4.10;3.80;;;19.00;47.80;;;;;;5098779;28;20471;-83
2022/03/16 09:46:51;;;;;;;4.60;4.10;;;19.20;47.90;;;;;;5098692;28;20565;-82
2022/03/16 09:49:19;;;;;;;4.37;3.97;;;19.40;48.00;;;;;;5109109;28;20451;-84
2022/03/16 09:51:48;;;;;;;4.40;4.00;;;19.60;47.90;;;;;;5105462;28;20473;-83
2022/03/16 09:54:16;;;;;;;4.27;3.97;;;19.90;47.80;;;;;;5103957;28;20480;-84
2022/03/16 09:56:45;;;;;;;4.50;4.10;;;20.10;47.70;;;;;;5106254;28;20499;-83
2022/03/16 09:59:12;;;;;;;4.77;4.37;;;20.50;47.80;;;;;;5105837;28;20453;-83
2022/03/16 10:01:40;;;;;;;5.13;4.70;;;20.80;47.60;;;;;;5105620;28;20436;-83
2022/03/16 10:04:08;;;;;;;6.13;4.53;;;21.10;47.40;;;;;;5108132;28;20464;-83
2022/03/16 10:06:36;;;;;;;5.33;4.83;;;21.50;47.30;;;;;;5105541;28;20437;-83
2022/03/16 10:15:01;;;;;;;7.43;5.73;;;22.00;47.30;;;;;;5098772;28;20474;-84
2022/03/16 10:17:44;;;;;;;6.40;5.27;;;22.20;47.40;;;;;;5100555;28;20468;-84
2022/03/16 10:20:28;;;;;;;7.03;6.13;;;22.30;47.30;;;;;;5099139;28;20528;-81
2022/03/16 10:23:01;;;;;;;8.93;5.87;;;22.50;47.40;;;;;;5096679;28;20531;-84
2022/03/16 10:25:31;;;;;;;10.13;6.00;;;22.60;47.30;;;;;;5089452;28;20448;-85
2022/03/16 10:28:10;;;;;;;9.00;6.90;;;22.70;47.30;;;;;;5085166;28;20985;-86
2022/03/16 10:30:56;;;;;;;6.33;5.60;;;22.60;48.10;;;;;;5097721;28;20443;-86
2022/03/16 10:33:26;;;;;;;5.83;5.30;;;22.80;47.60;;;;;;5099553;28;20472;-86
2022/03/16 10:35:56;;;;;;;6.30;5.70;;;23.00;47.40;;;;;;5089966;28;20495;-84
2022/03/16 10:38:24;;;;;;;7.33;5.77;;;23.10;47.30;;;;;;5100367;28;20480;-84
2022/03/16 10:40:54;;;;;;;6.93;5.30;;;23.40;47.20;;;;;;5101907;28;20478;-84
2022/03/16 10:48:59;;;;;;;4.97;4.60;;;24.10;46.60;;;;;;5097948;28;20438;-85
2022/03/16 10:51:27;;;;;;;10.80;4.90;;;24.40;46.40;;;;;;5100433;28;20523;-85
2022/03/16 10:54:16;;;;;;;5.30;4.80;;;24.80;46.10;;;;;;5100791;28;20465;-85
2022/03/16 10:56:45;;;;;;;6.03;4.80;;;25.00;45.90;;;;;;5100871;28;20550;-84
2022/03/16 10:59:13;;;;;;;6.80;5.43;;;25.30;45.60;;;;;;5097768;28;20476;-82
2022/03/16 11:01:41;;;;;;;5.37;4.83;;;25.50;45.20;;;;;;5091113;28;20468;-82
2022/03/16 11:04:09;;;;;;;7.77;4.93;;;25.90;44.90;;;;;;5094508;28;20439;-82
2022/03/16 11:06:38;;;;;;;6.40;4.73;;;26.20;44.40;;;;;;5112308;28;20444;-82
2022/03/16 11:09:05;;;;;;;5.53;4.50;;;26.50;43.90;;;;;;5116338;28;20436;-82
2022/03/16 11:14:21;;;;;;;5.17;4.70;;;26.90;44.00;;;;;;5110868;28;20454;-82
2022/03/16 11:16:49;;;;;;;5.00;4.60;;;27.20;43.00;;;;;;5116321;28;20439;-83
2022/03/16 11:19:18;;;;;;;5.20;4.80;;;27.50;42.70;;;;;;5113641;28;20411;-82
2022/03/16 11:21:49;;;;;;;5.87;4.50;;;27.70;42.40;;;;;;5109183;28;20446;-83
2022/03/16 11:24:20;;;;;;;10.67;4.30;;;28.00;42.00;;;;;;5116575;28;20423;-82
2022/03/16 11:27:12;;;;;;;5.10;4.60;;;28.40;41.40;;;;;;5114384;28;20406;-83
2022/03/16 11:29:47;;;;;;;5.13;4.30;;;29.20;40.40;;;;;;5094803;28;20817;-83
2022/03/16 11:32:16;;;;;;;5.30;4.43;;;30.20;39.00;;;;;;5110921;28;20969;-83
2022/03/16 11:34:48;;;;;;;3.90;3.53;;;30.90;37.80;;;;;;5107060;28;20432;-83
2022/03/16 11:37:16;;;;;;;4.43;4.03;;;31.50;36.80;;;;;;5095399;28;20452;-83
2022/03/16 11:39:45;;;;;;;3.57;3.37;;;32.20;35.80;;;;;;5104576;28;20439;-83
2022/03/16 11:42:17;;;;;;;3.80;3.53;;;32.90;34.80;;;;;;5114963;28;20436;-83
2022/03/16 11:44:46;;;;;;;3.90;3.60;;;33.50;33.80;;;;;;5114801;28;20468;-84
2022/03/16 11:47:36;;;;;;;4.00;3.70;;;33.40;33.70;;;;;;5107923;28;20484;-83
2022/03/16 11:50:05;;;;;;;4.07;3.67;;;33.30;33.00;;;;;;5106822;28;20444;-84
2022/03/16 11:53:13;;;;;;;3.07;2.97;;;32.90;33.80;;;;;;5096283;28;20502;-84
2022/03/16 11:55:51;;;;;;;3.77;3.67;;;33.50;33.50;;;;;;5099616;28;20487;-83
2022/03/16 11:58:26;;;;;;;3.53;3.27;;;34.30;31.80;;;;;;5112039;28;20436;-84
2022/03/16 12:01:29;;;;;;;4.30;3.90;;;34.60;31.10;;;;;;5106092;28;20468;-84
2022/03/16 12:04:02;;;;;;;3.00;2.90;;;34.80;31.50;;;;;;5034461;28;20555;-84
2022/03/16 12:06:31;;;;;;;2.97;2.67;;;35.20;30.00;;;;;;5043335;28;20580;-83
2022/03/16 12:09:02;;;;;;;3.20;3.10;;;35.20;29.80;;;;;;5074308;28;20449;-84
2022/03/16 12:15:03;;;;;;;3.40;3.10;;;35.60;29.80;;;;;;5098458;28;20460;-84
2022/03/16 12:17:32;;;;;;;3.63;3.33;;;35.70;29.30;;;;;;5095629;28;20956;-83
2022/03/16 12:20:09;;;;;;;3.53;3.33;;;35.50;29.30;;;;;;5097109;28;20555;-84
2022/03/16 12:22:43;;;;;;;3.67;3.27;;;35.50;29.30;;;;;;5095132;28;20963;-84
2022/03/16 12:25:32;;;;;;;3.17;2.90;;;35.50;29.00;;;;;;5101489;28;20437;-84
2022/03/16 12:30:50;;;;;;;3.20;3.00;;;35.70;28.60;;;;;;5093203;28;20496;-83
2022/03/16 12:33:22;;;;;;;3.33;3.03;;;35.80;28.40;;;;;;5107879;28;20440;-84
2022/03/16 12:35:50;;;;;;;2.93;2.83;;;36.00;28.40;;;;;;5107075;28;20658;-84
2022/03/16 12:38:19;;;;;;;3.00;2.80;;;35.80;28.30;;;;;;5108896;28;20423;-84
2022/03/16 12:43:33;;;;;;;3.00;2.80;;;35.90;28.20;;;;;;5116540;28;20449;-83
2022/03/16 12:46:09;;;;;;;3.67;2.80;;;35.90;28.20;;;;;;5112757;28;20452;-84
2022/03/16 12:48:38;;;;;;;2.53;2.43;;;35.40;28.40;;;;;;5109801;28;20460;-83
2022/03/16 12:51:06;;;;;;;3.00;2.80;;;35.60;28.20;;;;;;5106454;28;20458;-83
2022/03/16 12:53:44;;;;;;;5.23;2.93;;;35.50;28.20;;;;;;5108211;28;20469;-85
2022/03/16 12:56:16;;;;;;;3.93;2.80;;;35.70;28.10;;;;;;5109229;28;20448;-84
2022/03/16 12:58:44;;;;;;;3.20;2.67;;;36.00;27.80;;;;;;5112552;28;20463;-83
2022/03/16 13:01:21;;;;;;;3.03;2.90;;;36.20;27.60;;;;;;5112473;28;20472;-83
2022/03/16 13:04:00;;;;;;;2.57;2.43;;;36.40;27.30;;;;;;5111282;28;20524;-84
2022/03/16 13:06:31;;;;;;;2.80;2.60;;;36.70;26.70;;;;;;5109292;28;20440;-84
2022/03/16 13:09:00;;;;;;;2.87;2.77;;;37.00;26.60;;;;;;5099681;28;20457;-84
2022/03/16 13:11:30;;;;;;;3.43;2.90;;;37.10;26.40;;;;;;5098496;28;20463;-85
2022/03/16 13:14:02;;;;;;;3.93;2.43;;;37.20;26.10;;;;;;5106641;28;20472;-83
2022/03/16 13:16:35;;;;;;;2.43;2.33;;;37.40;26.10;;;;;;5109590;28;20448;-83
2022/03/16 13:19:05;;;;;;;2.67;2.47;;;37.90;25.90;;;;;;5110831;28;20455;-84